sensor_id;sensor_type;location;lat;lon;timestamp;temperature;humidity
39865;DHT22;25538;48.392;9.976;2022-11-03T00:00:33;7.40;99.90
39865;DHT22;25538;48.392;9.976;2022-11-03T00:02:59;7.30;99.90
39865;DHT22;25538;48.392;9.976;2022-11-03T00:05:25;7.30;99.90
39865;DHT22;25538;48.392;9.976;2022-11-03T00:08:09;7.20;99.90
39865;DHT22;25538;48.392;9.976;2022-11-03T00:10:35;7.20;99.90
39865;DHT22;25538;48.392;9.976;2022-11-03T00:13:01;7.20;99.90
39865;DHT22;25538;48.392;9.976;2022-11-03T00:15:27;7.20;99.90
39865;DHT22;25538;48.392;9.976;2022-11-03T00:17:53;7.20;99.90
39865;DHT22;25538;48.392;9.976;2022-11-03T00:20:19;7.10;99.90
39865;DHT22;25538;48.392;9.976;2022-11-03T00:22:45;7.10;99.90
39865;DHT22;25538;48.392;9.976;2022-11-03T00:25:11;7.10;99.90
39865;DHT22;25538;48.392;9.976;2022-11-03T00:27:36;7.10;99.90
39865;DHT22;25538;48.392;9.976;2022-11-03T00:30:03;7.00;99.90
39865;DHT22;25538;48.392;9.976;2022-11-03T00:32:29;7.00;99.90
39865;DHT22;25538;48.392;9.976;2022-11-03T00:34:54;7.00;99.90
39865;DHT22;25538;48.392;9.976;2022-11-03T00:37:20;6.90;99.90
39865;DHT22;25538;48.392;9.976;2022-11-03T00:39:46;6.90;99.90
39865;DHT22;25538;48.392;9.976;2022-11-03T00:42:12;6.90;99.90
39865;DHT22;25538;48.392;9.976;2022-11-03T00:44:38;6.80;99.90
39865;DHT22;25538;48.392;9.976;2022-11-03T00:47:04;6.90;99.90
39865;DHT22;25538;48.392;9.976;2022-11-03T00:49:30;6.80;99.90
39865;DHT22;25538;48.392;9.976;2022-11-03T00:51:56;6.80;99.90
39865;DHT22;25538;48.392;9.976;2022-11-03T00:54:22;6.80;99.90
39865;DHT22;25538;48.392;9.976;2022-11-03T00:56:48;6.80;99.90
39865;DHT22;25538;48.392;9.976;2022-11-03T00:59:14;6.80;99.90
39865;DHT22;25538;48.392;9.976;2022-11-03T01:01:42;6.80;99.90
39865;DHT22;25538;48.392;9.976;2022-11-03T01:04:09;6.80;99.90
39865;DHT22;25538;48.392;9.976;2022-11-03T01:06:55;6.80;99.90
39865;DHT22;25538;48.392;9.976;2022-11-03T01:09:39;6.80;99.90
39865;DHT22;25538;48.392;9.976;2022-11-03T01:12:14;6.70;99.90
39865;DHT22;25538;48.392;9.976;2022-11-03T01:14:46;6.70;99.90
39865;DHT22;25538;48.392;9.976;2022-11-03T01:17:14;6.80;99.90
39865;DHT22;25538;48.392;9.976;2022-11-03T01:19:40;6.80;99.90
39865;DHT22;25538;48.392;9.976;2022-11-03T01:22:06;6.80;99.90
39865;DHT22;25538;48.392;9.976;2022-11-03T01:24:33;6.90;99.90
39865;DHT22;25538;48.392;9.976;2022-11-03T01:27:00;6.80;99.90
39865;DHT22;25538;48.392;9.976;2022-11-03T01:29:26;6.80;99.90
39865;DHT22;25538;48.392;9.976;2022-11-03T01:31:52;6.90;99.90
39865;DHT22;25538;48.392;9.976;2022-11-03T01:34:20;6.90;99.90
39865;DHT22;25538;48.392;9.976;2022-11-03T01:36:46;7.00;99.90
39865;DHT22;25538;48.392;9.976;2022-11-03T01:39:16;7.00;99.90
39865;DHT22;25538;48.392;9.976;2022-11-03T01:41:45;7.00;99.90
39865;DHT22;25538;48.392;9.976;2022-11-03T01:46:58;7.10;99.90
39865;DHT22;25538;48.392;9.976;2022-11-03T01:52:15;7.10;99.90
39865;DHT22;25538;48.392;9.976;2022-11-03T01:54:43;7.10;99.90
39865;DHT22;25538;48.392;9.976;2022-11-03T01:57:14;7.10;99.90
39865;DHT22;25538;48.392;9.976;2022-11-03T01:59:41;7.10;99.90
39865;DHT22;25538;48.392;9.976;2022-11-03T02:02:09;7.10;99.90
39865;DHT22;25538;48.392;9.976;2022-11-03T02:04:35;6.90;99.90
39865;DHT22;25538;48.392;9.976;2022-11-03T02:07:33;6.80;99.90
39865;DHT22;25538;48.392;9.976;2022-11-03T02:10:00;6.90;99.90
39865;DHT22;25538;48.392;9.976;2022-11-03T02:12:26;6.90;99.90
39865;DHT22;25538;48.392;9.976;2022-11-03T02:14:55;6.80;99.90
39865;DHT22;25538;48.392;9.976;2022-11-03T02:17:25;6.80;99.90
39865;DHT22;25538;48.392;9.976;2022-11-03T02:20:07;6.90;99.90
39865;DHT22;25538;48.392;9.976;2022-11-03T02:27:58;6.90;99.90
39865;DHT22;25538;48.392;9.976;2022-11-03T02:30:33;6.90;99.90
39865;DHT22;25538;48.392;9.976;2022-11-03T02:33:09;6.90;99.90
39865;DHT22;25538;48.392;9.976;2022-11-03T02:36:22;7.00;99.90
39865;DHT22;25538;48.392;9.976;2022-11-03T02:38:30;7.00;99.90
39865;DHT22;25538;48.392;9.976;2022-11-03T02:41:00;6.90;99.90
39865;DHT22;25538;48.392;9.976;2022-11-03T02:43:28;6.90;99.90
39865;DHT22;25538;48.392;9.976;2022-11-03T02:45:54;6.80;99.90
39865;DHT22;25538;48.392;9.976;2022-11-03T02:48:20;6.80;99.90
39865;DHT22;25538;48.392;9.976;2022-11-03T02:50:47;6.70;99.90
39865;DHT22;25538;48.392;9.976;2022-11-03T02:53:16;6.70;99.90
39865;DHT22;25538;48.392;9.976;2022-11-03T02:56:00;6.80;99.90
39865;DHT22;25538;48.392;9.976;2022-11-03T03:01:36;6.80;99.90
39865;DHT22;25538;48.392;9.976;2022-11-03T03:04:19;6.80;99.90
39865;DHT22;25538;48.392;9.976;2022-11-03T03:07:36;6.70;99.90
39865;DHT22;25538;48.392;9.976;2022-11-03T03:12:48;6.70;99.90
39865;DHT22;25538;48.392;9.976;2022-11-03T03:15:16;6.70;99.90
39865;DHT22;25538;48.392;9.976;2022-11-03T03:17:53;6.80;99.90
39865;DHT22;25538;48.392;9.976;2022-11-03T03:20:32;6.70;99.90
39865;DHT22;25538;48.392;9.976;2022-11-03T03:25:37;6.70;99.90
39865;DHT22;25538;48.392;9.976;2022-11-03T03:28:15;6.70;99.90
39865;DHT22;25538;48.392;9.976;2022-11-03T03:30:44;6.70;99.90
39865;DHT22;25538;48.392;9.976;2022-11-03T03:33:11;6.60;99.90
39865;DHT22;25538;48.392;9.976;2022-11-03T03:35:41;6.60;99.90
39865;DHT22;25538;48.392;9.976;2022-11-03T03:38:17;6.70;99.90
39865;DHT22;25538;48.392;9.976;2022-11-03T03:40:48;6.80;99.90
39865;DHT22;25538;48.392;9.976;2022-11-03T03:43:15;6.80;99.90
39865;DHT22;25538;48.392;9.976;2022-11-03T03:45:43;6.80;99.90
39865;DHT22;25538;48.392;9.976;2022-11-03T03:48:11;6.80;99.90
39865;DHT22;25538;48.392;9.976;2022-11-03T03:50:38;6.80;99.90
39865;DHT22;25538;48.392;9.976;2022-11-03T03:53:08;6.70;99.90
39865;DHT22;25538;48.392;9.976;2022-11-03T03:55:41;6.80;99.90
39865;DHT22;25538;48.392;9.976;2022-11-03T03:58:11;6.80;99.90
39865;DHT22;25538;48.392;9.976;2022-11-03T04:00:37;6.70;99.90
39865;DHT22;25538;48.392;9.976;2022-11-03T04:03:05;6.70;99.90
39865;DHT22;25538;48.392;9.976;2022-11-03T04:05:31;6.70;99.90
39865;DHT22;25538;48.392;9.976;2022-11-03T04:07:57;6.80;99.90
39865;DHT22;25538;48.392;9.976;2022-11-03T04:10:23;6.80;99.90
39865;DHT22;25538;48.392;9.976;2022-11-03T04:12:49;6.90;99.90
39865;DHT22;25538;48.392;9.976;2022-11-03T04:15:35;7.00;99.90
39865;DHT22;25538;48.392;9.976;2022-11-03T04:18:17;6.90;99.90
39865;DHT22;25538;48.392;9.976;2022-11-03T04:21:02;7.00;99.90
39865;DHT22;25538;48.392;9.976;2022-11-03T04:23:47;7.00;99.90
39865;DHT22;25538;48.392;9.976;2022-11-03T04:26:17;7.00;99.90
39865;DHT22;25538;48.392;9.976;2022-11-03T04:28:44;7.00;99.90
39865;DHT22;25538;48.392;9.976;2022-11-03T04:31:12;6.90;99.90
39865;DHT22;25538;48.392;9.976;2022-11-03T04:33:39;6.90;99.90
39865;DHT22;25538;48.392;9.976;2022-11-03T04:36:19;6.90;99.90
39865;DHT22;25538;48.392;9.976;2022-11-03T04:38:46;6.90;99.90
39865;DHT22;25538;48.392;9.976;2022-11-03T04:41:15;7.00;99.90
39865;DHT22;25538;48.392;9.976;2022-11-03T04:43:41;7.00;99.90
39865;DHT22;25538;48.392;9.976;2022-11-03T04:46:10;7.10;99.90
39865;DHT22;25538;48.392;9.976;2022-11-03T04:48:37;7.10;99.90
39865;DHT22;25538;48.392;9.976;2022-11-03T04:51:14;7.10;99.90
39865;DHT22;25538;48.392;9.976;2022-11-03T04:53:48;7.10;99.90
39865;DHT22;25538;48.392;9.976;2022-11-03T04:56:17;7.10;99.90
39865;DHT22;25538;48.392;9.976;2022-11-03T04:58:44;7.10;99.90
39865;DHT22;25538;48.392;9.976;2022-11-03T05:01:17;7.10;99.90
39865;DHT22;25538;48.392;9.976;2022-11-03T05:03:45;7.10;99.90
39865;DHT22;25538;48.392;9.976;2022-11-03T05:06:25;7.00;99.90
39865;DHT22;25538;48.392;9.976;2022-11-03T05:08:58;7.10;99.90
39865;DHT22;25538;48.392;9.976;2022-11-03T05:11:29;7.20;99.90
39865;DHT22;25538;48.392;9.976;2022-11-03T05:13:59;7.10;99.90
39865;DHT22;25538;48.392;9.976;2022-11-03T05:16:26;7.10;99.90
39865;DHT22;25538;48.392;9.976;2022-11-03T05:18:52;7.00;99.90
39865;DHT22;25538;48.392;9.976;2022-11-03T05:21:20;7.10;99.90
39865;DHT22;25538;48.392;9.976;2022-11-03T05:24:02;7.20;99.90
39865;DHT22;25538;48.392;9.976;2022-11-03T05:26:31;7.10;99.90
39865;DHT22;25538;48.392;9.976;2022-11-03T05:29:18;7.20;99.90
39865;DHT22;25538;48.392;9.976;2022-11-03T05:31:51;7.20;99.90
39865;DHT22;25538;48.392;9.976;2022-11-03T05:36:50;7.10;99.90
39865;DHT22;25538;48.392;9.976;2022-11-03T05:41:48;7.10;99.90
39865;DHT22;25538;48.392;9.976;2022-11-03T05:44:35;7.10;99.90
39865;DHT22;25538;48.392;9.976;2022-11-03T05:47:07;7.00;99.90
39865;DHT22;25538;48.392;9.976;2022-11-03T05:49:36;6.90;99.90
39865;DHT22;25538;48.392;9.976;2022-11-03T05:52:02;6.90;99.90
39865;DHT22;25538;48.392;9.976;2022-11-03T05:54:31;6.90;99.90
39865;DHT22;25538;48.392;9.976;2022-11-03T05:56:58;6.90;99.90
39865;DHT22;25538;48.392;9.976;2022-11-03T05:59:27;6.80;99.90
39865;DHT22;25538;48.392;9.976;2022-11-03T06:01:58;6.80;99.90
39865;DHT22;25538;48.392;9.976;2022-11-03T06:04:31;6.80;99.90
39865;DHT22;25538;48.392;9.976;2022-11-03T06:07:10;6.80;99.90
39865;DHT22;25538;48.392;9.976;2022-11-03T06:09:37;6.80;99.90
39865;DHT22;25538;48.392;9.976;2022-11-03T06:12:04;6.90;99.90
39865;DHT22;25538;48.392;9.976;2022-11-03T06:14:32;6.90;99.90
39865;DHT22;25538;48.392;9.976;2022-11-03T06:19:38;6.90;99.90
39865;DHT22;25538;48.392;9.976;2022-11-03T06:24:42;6.90;99.90
39865;DHT22;25538;48.392;9.976;2022-11-03T06:27:13;6.80;99.90
39865;DHT22;25538;48.392;9.976;2022-11-03T06:29:40;6.80;99.90
39865;DHT22;25538;48.392;9.976;2022-11-03T06:32:10;6.90;99.90
39865;DHT22;25538;48.392;9.976;2022-11-03T06:37:33;6.90;99.90
39865;DHT22;25538;48.392;9.976;2022-11-03T06:42:46;6.80;99.90
39865;DHT22;25538;48.392;9.976;2022-11-03T06:45:19;6.80;99.90
39865;DHT22;25538;48.392;9.976;2022-11-03T06:47:45;6.90;99.90
39865;DHT22;25538;48.392;9.976;2022-11-03T06:50:30;7.00;99.90
39865;DHT22;25538;48.392;9.976;2022-11-03T06:52:57;7.10;99.90
39865;DHT22;25538;48.392;9.976;2022-11-03T06:55:31;7.10;99.90
39865;DHT22;25538;48.392;9.976;2022-11-03T06:58:12;7.10;99.90
39865;DHT22;25538;48.392;9.976;2022-11-03T07:00:40;7.20;99.90
39865;DHT22;25538;48.392;9.976;2022-11-03T07:05:33;7.10;99.90
39865;DHT22;25538;48.392;9.976;2022-11-03T07:08:03;7.00;99.90
39865;DHT22;25538;48.392;9.976;2022-11-03T07:10:31;6.90;99.90
39865;DHT22;25538;48.392;9.976;2022-11-03T07:13:00;6.90;99.90
39865;DHT22;25538;48.392;9.976;2022-11-03T07:15:33;7.00;99.90
39865;DHT22;25538;48.392;9.976;2022-11-03T07:18:04;7.10;99.90
39865;DHT22;25538;48.392;9.976;2022-11-03T07:20:35;7.20;99.90
39865;DHT22;25538;48.392;9.976;2022-11-03T07:23:03;7.30;99.90
39865;DHT22;25538;48.392;9.976;2022-11-03T07:25:30;7.40;99.90
39865;DHT22;25538;48.392;9.976;2022-11-03T07:27:56;7.40;99.90
39865;DHT22;25538;48.392;9.976;2022-11-03T07:30:32;7.40;99.90
39865;DHT22;25538;48.392;9.976;2022-11-03T07:33:23;7.30;99.90
39865;DHT22;25538;48.392;9.976;2022-11-03T07:35:48;7.20;99.90
39865;DHT22;25538;48.392;9.976;2022-11-03T07:38:18;7.10;99.90
39865;DHT22;25538;48.392;9.976;2022-11-03T07:40:44;7.20;99.90
39865;DHT22;25538;48.392;9.976;2022-11-03T07:45:43;7.40;99.90
39865;DHT22;25538;48.392;9.976;2022-11-03T07:50:54;7.70;99.90
39865;DHT22;25538;48.392;9.976;2022-11-03T07:53:41;7.80;99.90
39865;DHT22;25538;48.392;9.976;2022-11-03T07:56:18;7.80;99.90
39865;DHT22;25538;48.392;9.976;2022-11-03T07:58:44;7.80;99.90
39865;DHT22;25538;48.392;9.976;2022-11-03T08:01:27;7.90;99.90
39865;DHT22;25538;48.392;9.976;2022-11-03T08:04:00;8.00;99.90
39865;DHT22;25538;48.392;9.976;2022-11-03T08:06:29;8.10;99.90
39865;DHT22;25538;48.392;9.976;2022-11-03T08:08:55;8.10;99.90
39865;DHT22;25538;48.392;9.976;2022-11-03T08:11:21;8.10;99.90
39865;DHT22;25538;48.392;9.976;2022-11-03T08:13:49;8.00;99.90
39865;DHT22;25538;48.392;9.976;2022-11-03T08:16:16;8.10;99.90
39865;DHT22;25538;48.392;9.976;2022-11-03T08:18:42;8.30;99.90
39865;DHT22;25538;48.392;9.976;2022-11-03T08:21:09;8.20;99.90
39865;DHT22;25538;48.392;9.976;2022-11-03T08:23:34;8.30;99.90
39865;DHT22;25538;48.392;9.976;2022-11-03T08:26:01;8.30;99.90
39865;DHT22;25538;48.392;9.976;2022-11-03T08:28:27;8.20;99.90
39865;DHT22;25538;48.392;9.976;2022-11-03T08:30:53;8.10;99.90
39865;DHT22;25538;48.392;9.976;2022-11-03T08:33:19;8.00;99.90
39865;DHT22;25538;48.392;9.976;2022-11-03T08:35:45;8.10;99.90
39865;DHT22;25538;48.392;9.976;2022-11-03T08:38:11;8.30;99.90
39865;DHT22;25538;48.392;9.976;2022-11-03T08:40:37;8.40;99.90
39865;DHT22;25538;48.392;9.976;2022-11-03T08:43:03;8.40;99.90
39865;DHT22;25538;48.392;9.976;2022-11-03T08:45:30;8.30;99.90
39865;DHT22;25538;48.392;9.976;2022-11-03T08:47:56;8.30;99.90
39865;DHT22;25538;48.392;9.976;2022-11-03T08:50:22;8.20;99.90
39865;DHT22;25538;48.392;9.976;2022-11-03T08:52:48;8.30;99.90
39865;DHT22;25538;48.392;9.976;2022-11-03T08:55:14;8.30;99.90
39865;DHT22;25538;48.392;9.976;2022-11-03T08:57:40;8.30;99.90
39865;DHT22;25538;48.392;9.976;2022-11-03T09:00:07;8.30;99.90
39865;DHT22;25538;48.392;9.976;2022-11-03T09:02:33;8.30;99.90
39865;DHT22;25538;48.392;9.976;2022-11-03T09:04:59;8.20;99.90
39865;DHT22;25538;48.392;9.976;2022-11-03T09:07:25;8.20;99.90
39865;DHT22;25538;48.392;9.976;2022-11-03T09:09:51;8.20;99.90
39865;DHT22;25538;48.392;9.976;2022-11-03T09:12:17;8.20;99.90
39865;DHT22;25538;48.392;9.976;2022-11-03T09:14:42;8.20;99.90
39865;DHT22;25538;48.392;9.976;2022-11-03T09:17:08;8.40;99.90
39865;DHT22;25538;48.392;9.976;2022-11-03T09:19:34;8.40;99.90
39865;DHT22;25538;48.392;9.976;2022-11-03T09:22:00;8.40;99.90
39865;DHT22;25538;48.392;9.976;2022-11-03T09:24:26;8.60;99.90
39865;DHT22;25538;48.392;9.976;2022-11-03T09:26:52;8.80;99.90
39865;DHT22;25538;48.392;9.976;2022-11-03T09:29:18;8.90;99.90
39865;DHT22;25538;48.392;9.976;2022-11-03T09:31:44;9.00;99.90
39865;DHT22;25538;48.392;9.976;2022-11-03T09:34:10;9.00;99.90
39865;DHT22;25538;48.392;9.976;2022-11-03T09:36:36;9.20;99.90
39865;DHT22;25538;48.392;9.976;2022-11-03T09:39:02;9.20;99.90
39865;DHT22;25538;48.392;9.976;2022-11-03T09:41:29;9.20;99.90
39865;DHT22;25538;48.392;9.976;2022-11-03T09:43:57;9.30;99.90
39865;DHT22;25538;48.392;9.976;2022-11-03T09:46:24;9.20;99.90
39865;DHT22;25538;48.392;9.976;2022-11-03T09:48:50;9.20;99.90
39865;DHT22;25538;48.392;9.976;2022-11-03T09:51:19;9.10;99.90
39865;DHT22;25538;48.392;9.976;2022-11-03T09:53:46;9.00;99.90
39865;DHT22;25538;48.392;9.976;2022-11-03T09:56:12;9.00;99.90
39865;DHT22;25538;48.392;9.976;2022-11-03T09:58:39;9.00;99.90
39865;DHT22;25538;48.392;9.976;2022-11-03T10:01:09;9.10;99.90
39865;DHT22;25538;48.392;9.976;2022-11-03T10:03:35;9.30;99.90
39865;DHT22;25538;48.392;9.976;2022-11-03T10:06:03;9.40;99.90
39865;DHT22;25538;48.392;9.976;2022-11-03T10:08:31;9.40;99.90
39865;DHT22;25538;48.392;9.976;2022-11-03T10:10:59;9.30;99.90
39865;DHT22;25538;48.392;9.976;2022-11-03T10:13:51;9.10;99.90
39865;DHT22;25538;48.392;9.976;2022-11-03T10:16:20;9.20;99.90
39865;DHT22;25538;48.392;9.976;2022-11-03T10:18:47;9.20;99.90
39865;DHT22;25538;48.392;9.976;2022-11-03T10:21:18;9.10;99.90
39865;DHT22;25538;48.392;9.976;2022-11-03T10:23:45;8.90;99.90
39865;DHT22;25538;48.392;9.976;2022-11-03T10:26:13;8.80;99.90
39865;DHT22;25538;48.392;9.976;2022-11-03T10:31:22;8.60;99.90
39865;DHT22;25538;48.392;9.976;2022-11-03T10:33:53;8.70;99.90
39865;DHT22;25538;48.392;9.976;2022-11-03T10:38:46;8.80;99.90
39865;DHT22;25538;48.392;9.976;2022-11-03T10:44:01;8.60;99.90
39865;DHT22;25538;48.392;9.976;2022-11-03T10:46:29;8.50;99.90
39865;DHT22;25538;48.392;9.976;2022-11-03T10:49:15;8.50;99.90
39865;DHT22;25538;48.392;9.976;2022-11-03T10:51:42;8.80;99.90
39865;DHT22;25538;48.392;9.976;2022-11-03T10:54:13;8.90;99.90
39865;DHT22;25538;48.392;9.976;2022-11-03T10:56:40;9.00;99.90
39865;DHT22;25538;48.392;9.976;2022-11-03T10:59:16;9.20;99.90
39865;DHT22;25538;48.392;9.976;2022-11-03T11:01:43;9.10;99.90
39865;DHT22;25538;48.392;9.976;2022-11-03T11:04:18;9.20;99.90
39865;DHT22;25538;48.392;9.976;2022-11-03T11:06:44;9.20;99.90
39865;DHT22;25538;48.392;9.976;2022-11-03T11:09:32;9.30;99.90
39865;DHT22;25538;48.392;9.976;2022-11-03T11:12:04;9.30;99.90
39865;DHT22;25538;48.392;9.976;2022-11-03T11:17:00;9.00;99.90
39865;DHT22;25538;48.392;9.976;2022-11-03T11:19:28;9.20;99.90
39865;DHT22;25538;48.392;9.976;2022-11-03T11:30:07;9.20;99.90
39865;DHT22;25538;48.392;9.976;2022-11-03T11:32:55;9.40;99.90
39865;DHT22;25538;48.392;9.976;2022-11-03T11:37:49;9.10;99.90
39865;DHT22;25538;48.392;9.976;2022-11-03T11:48:34;9.00;99.90
39865;DHT22;25538;48.392;9.976;2022-11-03T11:51:01;9.10;99.90
39865;DHT22;25538;48.392;9.976;2022-11-03T11:53:37;9.10;99.90
39865;DHT22;25538;48.392;9.976;2022-11-03T11:56:03;9.10;99.90
39865;DHT22;25538;48.392;9.976;2022-11-03T11:58:50;9.10;99.90
39865;DHT22;25538;48.392;9.976;2022-11-03T12:01:33;9.10;99.90
39865;DHT22;25538;48.392;9.976;2022-11-03T12:04:23;9.20;99.90
39865;DHT22;25538;48.392;9.976;2022-11-03T12:06:50;9.10;99.90
39865;DHT22;25538;48.392;9.976;2022-11-03T12:09:19;9.10;99.90
39865;DHT22;25538;48.392;9.976;2022-11-03T12:11:48;9.10;99.90
39865;DHT22;25538;48.392;9.976;2022-11-03T12:16:49;9.00;99.90
39865;DHT22;25538;48.392;9.976;2022-11-03T12:22:05;8.90;99.90
39865;DHT22;25538;48.392;9.976;2022-11-03T12:27:02;9.10;99.90
39865;DHT22;25538;48.392;9.976;2022-11-03T12:29:29;9.20;99.90
39865;DHT22;25538;48.392;9.976;2022-11-03T12:31:55;9.30;99.90
39865;DHT22;25538;48.392;9.976;2022-11-03T12:34:21;9.40;99.90
39865;DHT22;25538;48.392;9.976;2022-11-03T12:36:47;9.30;99.90
39865;DHT22;25538;48.392;9.976;2022-11-03T12:39:13;9.30;99.90
39865;DHT22;25538;48.392;9.976;2022-11-03T12:41:38;9.40;99.90
39865;DHT22;25538;48.392;9.976;2022-11-03T12:44:04;9.30;99.90
39865;DHT22;25538;48.392;9.976;2022-11-03T12:46:30;9.30;99.90
39865;DHT22;25538;48.392;9.976;2022-11-03T12:48:56;9.30;99.90
39865;DHT22;25538;48.392;9.976;2022-11-03T12:51:23;9.20;99.90
39865;DHT22;25538;48.392;9.976;2022-11-03T12:53:50;9.10;99.90
39865;DHT22;25538;48.392;9.976;2022-11-03T12:56:17;9.10;99.90
39865;DHT22;25538;48.392;9.976;2022-11-03T12:58:44;9.00;99.90
39865;DHT22;25538;48.392;9.976;2022-11-03T13:01:10;8.90;99.90
39865;DHT22;25538;48.392;9.976;2022-11-03T13:03:36;8.90;99.90
39865;DHT22;25538;48.392;9.976;2022-11-03T13:06:03;9.00;99.90
39865;DHT22;25538;48.392;9.976;2022-11-03T13:08:32;9.00;99.90
39865;DHT22;25538;48.392;9.976;2022-11-03T13:10:59;8.90;99.90
39865;DHT22;25538;48.392;9.976;2022-11-03T13:13:25;8.90;99.90
39865;DHT22;25538;48.392;9.976;2022-11-03T13:15:51;8.90;99.90
39865;DHT22;25538;48.392;9.976;2022-11-03T13:18:18;9.10;99.90
39865;DHT22;25538;48.392;9.976;2022-11-03T13:20:45;9.20;99.90
39865;DHT22;25538;48.392;9.976;2022-11-03T13:23:11;9.20;99.90
39865;DHT22;25538;48.392;9.976;2022-11-03T13:25:37;9.10;99.90
39865;DHT22;25538;48.392;9.976;2022-11-03T13:28:03;9.20;99.90
39865;DHT22;25538;48.392;9.976;2022-11-03T13:30:29;9.20;99.90
39865;DHT22;25538;48.392;9.976;2022-11-03T13:32:56;9.30;99.90
39865;DHT22;25538;48.392;9.976;2022-11-03T13:35:22;9.30;99.90
39865;DHT22;25538;48.392;9.976;2022-11-03T13:37:48;9.50;99.90
39865;DHT22;25538;48.392;9.976;2022-11-03T13:40:15;9.60;99.90
39865;DHT22;25538;48.392;9.976;2022-11-03T13:42:41;9.70;99.90
39865;DHT22;25538;48.392;9.976;2022-11-03T13:45:07;9.60;99.90
39865;DHT22;25538;48.392;9.976;2022-11-03T13:47:34;9.60;99.90
39865;DHT22;25538;48.392;9.976;2022-11-03T13:50:00;9.70;99.90
39865;DHT22;25538;48.392;9.976;2022-11-03T13:52:27;9.70;99.90
39865;DHT22;25538;48.392;9.976;2022-11-03T13:54:53;9.70;99.90
39865;DHT22;25538;48.392;9.976;2022-11-03T13:57:19;9.70;99.90
39865;DHT22;25538;48.392;9.976;2022-11-03T13:59:46;9.60;99.90
39865;DHT22;25538;48.392;9.976;2022-11-03T14:02:13;9.70;99.90
39865;DHT22;25538;48.392;9.976;2022-11-03T14:04:39;9.80;99.90
39865;DHT22;25538;48.392;9.976;2022-11-03T14:07:05;9.80;99.90
39865;DHT22;25538;48.392;9.976;2022-11-03T14:09:32;9.80;99.90
39865;DHT22;25538;48.392;9.976;2022-11-03T14:11:58;9.80;99.90
39865;DHT22;25538;48.392;9.976;2022-11-03T14:14:42;9.80;99.90
39865;DHT22;25538;48.392;9.976;2022-11-03T14:17:08;9.70;99.90
39865;DHT22;25538;48.392;9.976;2022-11-03T14:19:35;9.70;99.90
39865;DHT22;25538;48.392;9.976;2022-11-03T14:22:01;9.80;99.90
39865;DHT22;25538;48.392;9.976;2022-11-03T14:24:27;9.70;99.90
39865;DHT22;25538;48.392;9.976;2022-11-03T14:26:53;9.70;99.90
39865;DHT22;25538;48.392;9.976;2022-11-03T14:29:19;9.70;99.90
39865;DHT22;25538;48.392;9.976;2022-11-03T14:31:45;9.70;99.90
39865;DHT22;25538;48.392;9.976;2022-11-03T14:34:11;9.70;99.90
39865;DHT22;25538;48.392;9.976;2022-11-03T14:36:37;9.70;99.90
39865;DHT22;25538;48.392;9.976;2022-11-03T14:39:03;9.70;99.90
39865;DHT22;25538;48.392;9.976;2022-11-03T14:41:29;9.60;99.90
39865;DHT22;25538;48.392;9.976;2022-11-03T14:44:13;9.60;99.90
39865;DHT22;25538;48.392;9.976;2022-11-03T14:46:39;9.50;99.90
39865;DHT22;25538;48.392;9.976;2022-11-03T14:49:05;9.50;99.90
39865;DHT22;25538;48.392;9.976;2022-11-03T14:51:31;9.50;99.90
39865;DHT22;25538;48.392;9.976;2022-11-03T14:53:57;9.50;99.90
39865;DHT22;25538;48.392;9.976;2022-11-03T14:56:23;9.50;99.90
39865;DHT22;25538;48.392;9.976;2022-11-03T14:58:50;9.60;99.90
39865;DHT22;25538;48.392;9.976;2022-11-03T15:01:17;9.60;99.90
39865;DHT22;25538;48.392;9.976;2022-11-03T15:03:43;9.70;99.90
39865;DHT22;25538;48.392;9.976;2022-11-03T15:06:09;9.60;99.90
39865;DHT22;25538;48.392;9.976;2022-11-03T15:08:35;9.60;99.90
39865;DHT22;25538;48.392;9.976;2022-11-03T15:11:03;9.60;99.90
39865;DHT22;25538;48.392;9.976;2022-11-03T15:13:30;9.60;99.90
39865;DHT22;25538;48.392;9.976;2022-11-03T15:15:56;9.60;99.90
39865;DHT22;25538;48.392;9.976;2022-11-03T15:18:22;9.50;99.90
39865;DHT22;25538;48.392;9.976;2022-11-03T15:20:48;9.50;99.90
39865;DHT22;25538;48.392;9.976;2022-11-03T15:23:14;9.50;99.90
39865;DHT22;25538;48.392;9.976;2022-11-03T15:25:40;9.40;99.90
39865;DHT22;25538;48.392;9.976;2022-11-03T15:28:06;9.50;99.90
39865;DHT22;25538;48.392;9.976;2022-11-03T15:30:32;9.50;99.90
39865;DHT22;25538;48.392;9.976;2022-11-03T15:32:57;9.40;99.90
39865;DHT22;25538;48.392;9.976;2022-11-03T15:35:23;9.40;99.90
39865;DHT22;25538;48.392;9.976;2022-11-03T15:37:49;9.40;99.90
39865;DHT22;25538;48.392;9.976;2022-11-03T15:40:16;9.40;99.90
39865;DHT22;25538;48.392;9.976;2022-11-03T15:42:42;9.50;99.90
39865;DHT22;25538;48.392;9.976;2022-11-03T15:45:12;9.50;99.90
39865;DHT22;25538;48.392;9.976;2022-11-03T15:47:39;9.50;99.90
39865;DHT22;25538;48.392;9.976;2022-11-03T15:50:06;9.60;99.90
39865;DHT22;25538;48.392;9.976;2022-11-03T15:52:33;9.60;99.90
39865;DHT22;25538;48.392;9.976;2022-11-03T15:54:59;9.60;99.90
39865;DHT22;25538;48.392;9.976;2022-11-03T15:57:25;9.60;99.90
39865;DHT22;25538;48.392;9.976;2022-11-03T15:59:51;9.60;99.90
39865;DHT22;25538;48.392;9.976;2022-11-03T16:02:17;9.60;99.90
39865;DHT22;25538;48.392;9.976;2022-11-03T16:04:43;9.50;99.90
39865;DHT22;25538;48.392;9.976;2022-11-03T16:07:09;9.50;99.90
39865;DHT22;25538;48.392;9.976;2022-11-03T16:09:34;9.40;99.90
39865;DHT22;25538;48.392;9.976;2022-11-03T16:12:00;9.40;99.90
39865;DHT22;25538;48.392;9.976;2022-11-03T16:14:26;9.40;99.90
39865;DHT22;25538;48.392;9.976;2022-11-03T16:16:52;9.30;99.90
39865;DHT22;25538;48.392;9.976;2022-11-03T16:19:18;9.30;99.90
39865;DHT22;25538;48.392;9.976;2022-11-03T16:21:44;9.30;99.90
39865;DHT22;25538;48.392;9.976;2022-11-03T16:24:10;9.30;99.90
39865;DHT22;25538;48.392;9.976;2022-11-03T16:26:36;9.40;99.90
39865;DHT22;25538;48.392;9.976;2022-11-03T16:29:02;9.30;99.90
39865;DHT22;25538;48.392;9.976;2022-11-03T16:31:28;9.40;99.90
39865;DHT22;25538;48.392;9.976;2022-11-03T16:33:54;9.40;99.90
39865;DHT22;25538;48.392;9.976;2022-11-03T16:36:20;9.40;99.90
39865;DHT22;25538;48.392;9.976;2022-11-03T16:38:46;9.40;99.90
39865;DHT22;25538;48.392;9.976;2022-11-03T16:41:12;9.40;99.90
39865;DHT22;25538;48.392;9.976;2022-11-03T16:43:38;9.40;99.90
39865;DHT22;25538;48.392;9.976;2022-11-03T16:46:04;9.40;99.90
39865;DHT22;25538;48.392;9.976;2022-11-03T16:48:30;9.40;99.90
39865;DHT22;25538;48.392;9.976;2022-11-03T16:50:56;9.40;99.90
39865;DHT22;25538;48.392;9.976;2022-11-03T16:53:23;9.40;99.90
39865;DHT22;25538;48.392;9.976;2022-11-03T16:55:49;9.40;99.90
39865;DHT22;25538;48.392;9.976;2022-11-03T16:58:15;9.40;99.90
39865;DHT22;25538;48.392;9.976;2022-11-03T17:00:41;9.40;99.90
39865;DHT22;25538;48.392;9.976;2022-11-03T17:03:08;9.40;99.90
39865;DHT22;25538;48.392;9.976;2022-11-03T17:05:34;9.40;99.90
39865;DHT22;25538;48.392;9.976;2022-11-03T17:08:00;9.40;99.90
39865;DHT22;25538;48.392;9.976;2022-11-03T17:10:26;9.40;99.90
39865;DHT22;25538;48.392;9.976;2022-11-03T17:12:54;9.40;99.90
39865;DHT22;25538;48.392;9.976;2022-11-03T17:15:19;9.40;99.90